[source: ADDS]
METAR
EDMA 231220Z 06007KT 030V090 CAVOK 18/07 Q1019 RMK ATIS JUL =
TAF
TAF EDMA 231100Z 2312/2320 08005KT CAVOK PROB30 TEMPO 2312/2318 TSRA BKN020CB =
SR / SS: 04:11 / 18:21 UTC (Referenz EDMA 2014-04-23)
Start Bilder

PostHeaderIcon Bilder